createdAt,value
2022-11-09T00:02:06.820Z,100375.83
2022-11-09T00:04:37.784Z,100374.30
2022-11-09T00:07:08.822Z,100377.54
2022-11-09T00:09:40.412Z,100370.89
2022-11-09T00:12:11.254Z,100370.73
2022-11-09T00:14:42.034Z,100368.33
2022-11-09T00:17:12.885Z,100367.82
2022-11-09T00:19:44.483Z,100373.27
2022-11-09T00:22:15.254Z,100369.68
2022-11-09T00:24:46.002Z,100367.98
2022-11-09T00:27:17.905Z,100372.91
2022-11-09T00:29:48.893Z,100365.77
2022-11-09T00:32:27.488Z,100361.67
2022-11-09T00:34:58.828Z,100361.67
2022-11-09T00:37:33.863Z,100363.55
2022-11-09T00:40:05.063Z,100367.13
2022-11-09T00:42:35.949Z,100369.86
2022-11-09T00:45:08.043Z,100361.85
2022-11-09T00:47:38.967Z,100361.01
2022-11-09T00:50:11.152Z,100363.21
2022-11-09T00:52:42.011Z,100364.25
2022-11-09T00:55:13.131Z,100361.86
2022-11-09T00:57:44.077Z,100357.95
2022-11-09T01:00:18.168Z,100358.64
2022-11-09T01:02:50.866Z,100358.80
2022-11-09T01:05:22.568Z,100356.93
2022-11-09T01:07:53.528Z,100350.98
2022-11-09T01:10:27.879Z,100349.11
2022-11-09T01:12:58.819Z,100346.73
2022-11-09T01:15:29.665Z,100349.44
2022-11-09T01:18:00.560Z,100353.88
2022-11-09T01:20:31.458Z,100351.48
2022-11-09T01:23:03.908Z,100352.50
2022-11-09T01:25:34.931Z,100352.34
2022-11-09T01:28:07.431Z,100351.32
2022-11-09T01:30:40.498Z,100350.98
2022-11-09T01:33:13.472Z,100347.91
2022-11-09T01:35:44.378Z,100348.42
2022-11-09T01:38:15.312Z,100348.42
2022-11-09T01:40:46.179Z,100347.41
2022-11-09T01:43:22.174Z,100340.77
2022-11-09T01:45:57.417Z,100344.16
2022-11-09T01:48:34.257Z,100339.73
2022-11-09T01:51:11.251Z,100336.86
2022-11-09T01:53:46.917Z,100341.61
2022-11-09T01:56:20.655Z,100337.17
2022-11-09T01:58:56.299Z,100334.77
2022-11-09T02:01:28.161Z,100330.71
2022-11-09T02:04:03.898Z,100326.44
2022-11-09T02:06:39.631Z,100325.08
2022-11-09T02:09:15.478Z,100325.92
2022-11-09T02:11:47.565Z,100325.58
2022-11-09T02:14:19.979Z,100328.30
2022-11-09T02:16:51.280Z,100330.67
2022-11-09T02:19:22.222Z,100325.75
2022-11-09T02:21:53.159Z,100324.56
2022-11-09T02:24:24.125Z,100322.16
2022-11-09T02:26:55.367Z,100321.83
2022-11-09T02:29:30.414Z,100316.38
2022-11-09T02:32:05.311Z,100316.03
2022-11-09T02:34:36.707Z,100309.06
2022-11-09T02:37:07.736Z,100310.59
2022-11-09T02:39:39.259Z,100310.25
2022-11-09T02:42:19.867Z,100311.10
2022-11-09T02:44:57.563Z,100310.92
2022-11-09T02:47:29.020Z,100310.40
2022-11-09T02:49:59.909Z,100307.67
2022-11-09T02:52:30.811Z,100314.30
2022-11-09T02:55:02.142Z,100311.07
2022-11-09T02:57:33.141Z,100312.77
2022-11-09T03:00:04.959Z,100312.08
2022-11-09T03:02:36.902Z,100316.66
2022-11-09T03:05:10.101Z,100316.33
2022-11-09T03:07:42.664Z,100320.06
2022-11-09T03:10:14.014Z,100317.51
2022-11-09T03:12:45.435Z,100315.46
2022-11-09T03:15:17.946Z,100315.64
2022-11-09T03:17:49.608Z,100313.94
2022-11-09T03:20:22.032Z,100321.59
2022-11-09T03:22:52.924Z,100323.11
2022-11-09T03:25:23.950Z,100323.97
2022-11-09T03:28:00.440Z,100323.27
2022-11-09T03:30:32.042Z,100320.71
2022-11-09T03:33:04.565Z,100320.55
2022-11-09T03:35:35.580Z,100319.19
2022-11-09T03:38:06.884Z,100322.23
2022-11-09T03:40:38.230Z,100320.55
2022-11-09T03:43:09.117Z,100323.44
2022-11-09T03:45:40.133Z,100322.41
2022-11-09T03:48:11.060Z,100317.65
2022-11-09T03:50:42.046Z,100318.52
2022-11-09T03:53:14.304Z,100318.34
2022-11-09T03:55:45.601Z,100316.29
2022-11-09T03:58:16.558Z,100311.67
2022-11-09T04:00:47.464Z,100309.82
2022-11-09T04:03:18.557Z,100305.40
2022-11-09T04:05:49.672Z,100297.92
2022-11-09T04:08:20.586Z,100296.05
2022-11-09T04:10:51.551Z,100302.00
2022-11-09T04:13:22.618Z,100305.57
2022-11-09T04:15:53.718Z,100301.33
2022-11-09T04:18:24.578Z,100300.30
2022-11-09T04:20:55.451Z,100295.36
2022-11-09T04:23:26.466Z,100301.32
2022-11-09T04:25:59.007Z,100300.11
2022-11-09T04:28:29.905Z,100298.93
2022-11-09T04:31:04.529Z,100297.91
2022-11-09T04:33:35.434Z,100295.02
2022-11-09T04:36:06.865Z,100295.36
2022-11-09T04:38:37.865Z,100294.67
2022-11-09T04:41:09.483Z,100300.29
2022-11-09T04:43:40.387Z,100297.23
2022-11-09T04:46:11.293Z,100294.16
2022-11-09T04:48:42.202Z,100293.83
2022-11-09T04:51:13.523Z,100297.56
2022-11-09T04:53:44.335Z,100297.55
2022-11-09T04:56:15.324Z,100300.43
2022-11-09T04:58:46.278Z,100297.35
2022-11-09T05:01:17.913Z,100296.17
2022-11-09T05:03:48.832Z,100292.59
2022-11-09T05:06:35.127Z,100297.17
2022-11-09T05:09:07.626Z,100297.50
2022-11-09T05:11:39.104Z,100292.91
2022-11-09T05:14:10.006Z,100290.35
2022-11-09T05:16:41.021Z,100292.38
2022-11-09T05:19:12.027Z,100295.27
2022-11-09T05:21:43.265Z,100294.74
2022-11-09T05:24:14.440Z,100295.60
2022-11-09T05:26:45.452Z,100295.07
2022-11-09T05:29:17.842Z,100292.86
2022-11-09T05:31:52.275Z,100291.85
2022-11-09T05:34:24.230Z,100289.48
2022-11-09T05:37:00.713Z,100295.09
2022-11-09T05:39:37.864Z,100293.39
2022-11-09T05:42:10.450Z,100296.79
2022-11-09T05:44:53.651Z,100302.08
2022-11-09T05:48:18.167Z,100300.21
2022-11-09T05:51:01.374Z,100302.09
2022-11-09T05:53:49.374Z,100303.63
2022-11-09T05:56:20.691Z,100300.59
2022-11-09T05:58:51.616Z,100291.06
2022-11-09T06:01:22.695Z,100293.96
2022-11-09T06:03:57.803Z,100296.17
2022-11-09T06:06:30.112Z,100303.34
2022-11-09T06:09:01.315Z,100302.33
2022-11-09T06:11:36.138Z,100304.21
2022-11-09T06:14:09.079Z,100305.77
2022-11-09T06:16:40.927Z,100306.80
2022-11-09T06:19:11.905Z,100307.31
2022-11-09T06:21:42.980Z,100303.59
2022-11-09T06:24:14.348Z,100307.17
2022-11-09T06:26:46.580Z,100304.63
2022-11-09T06:29:20.163Z,100311.62
2022-11-09T06:32:01.604Z,100319.13
2022-11-09T06:34:35.159Z,100324.06
2022-11-09T06:37:06.129Z,100321.02
2022-11-09T06:39:37.215Z,100318.64
2022-11-09T06:42:08.406Z,100315.75
2022-11-09T06:44:39.491Z,100318.81
2022-11-09T06:47:10.389Z,100319.67
2022-11-09T06:49:42.669Z,100318.80
2022-11-09T06:52:13.977Z,100312.52
2022-11-09T06:54:44.949Z,100300.26
2022-11-09T06:57:16.023Z,100294.24
2022-11-09T06:59:47.006Z,100297.71
2022-11-09T07:02:19.197Z,100296.64
2022-11-09T07:04:52.646Z,100289.23
2022-11-09T07:07:27.928Z,100289.88
2022-11-09T07:10:00.630Z,100289.91
2022-11-09T07:12:32.714Z,100293.48
2022-11-09T07:15:04.205Z,100295.68
2022-11-09T07:17:37.147Z,100297.71
2022-11-09T07:20:13.470Z,100297.67
2022-11-09T07:22:44.681Z,100297.02
2022-11-09T07:25:15.770Z,100302.06
2022-11-09T07:27:47.723Z,100298.03
2022-11-09T07:30:21.876Z,100298.11
2022-11-09T07:33:08.807Z,100301.23
2022-11-09T07:35:41.009Z,100298.19
2022-11-09T07:38:12.348Z,100303.30
2022-11-09T07:40:44.020Z,100306.86
2022-11-09T07:43:16.095Z,100311.39
2022-11-09T07:45:49.876Z,100307.18
2022-11-09T07:48:21.260Z,100302.90
2022-11-09T07:50:52.683Z,100300.17
2022-11-09T07:53:24.067Z,100295.21
2022-11-09T07:56:01.575Z,100300.68
2022-11-09T07:58:34.825Z,100299.42
2022-11-09T08:01:10.288Z,100297.94
2022-11-09T08:03:39.948Z,100300.95
2022-11-09T08:06:17.172Z,100298.08
2022-11-09T08:08:50.365Z,100293.52
2022-11-09T08:11:21.345Z,100295.31
2022-11-09T08:13:53.050Z,100292.86
2022-11-09T08:16:24.307Z,100293.75
2022-11-09T08:18:59.747Z,100293.80
2022-11-09T08:21:30.670Z,100291.94
2022-11-09T08:24:02.043Z,100294.58
2022-11-09T08:26:33.180Z,100290.77
2022-11-09T08:29:04.139Z,100283.64
2022-11-09T08:31:35.646Z,100283.23
2022-11-09T08:34:06.924Z,100285.42
2022-11-09T08:36:38.599Z,100280.89
2022-11-09T08:39:11.721Z,100275.98
2022-11-09T08:41:45.053Z,100274.54
2022-11-09T08:44:16.082Z,100276.71
2022-11-09T08:46:47.120Z,100275.38
2022-11-09T08:49:18.161Z,100274.18
2022-11-09T08:51:49.306Z,100280.24
2022-11-09T08:54:22.583Z,100273.59
2022-11-09T08:56:57.951Z,100268.99
2022-11-09T08:59:28.869Z,100275.90
2022-11-09T09:02:00.200Z,100277.91
2022-11-09T09:04:33.663Z,100278.34
2022-11-09T09:07:06.138Z,100276.88
2022-11-09T09:09:38.366Z,100273.84
2022-11-09T09:12:11.476Z,100272.05
2022-11-09T09:14:42.512Z,100277.39
2022-11-09T09:17:14.006Z,100275.95
2022-11-09T09:19:50.115Z,100278.38
2022-11-09T09:22:21.382Z,100285.91
2022-11-09T09:24:52.392Z,100286.23
2022-11-09T09:27:23.903Z,100285.51
2022-11-09T09:29:54.704Z,100289.16
2022-11-09T09:32:30.214Z,100287.06
2022-11-09T09:35:01.461Z,100286.10
2022-11-09T09:37:32.664Z,100283.56
2022-11-09T09:40:03.707Z,100283.63
2022-11-09T09:42:39.500Z,100291.02
2022-11-09T09:45:19.767Z,100292.35
2022-11-09T09:48:01.042Z,100288.48
2022-11-09T09:50:38.257Z,100285.15
2022-11-09T09:53:24.348Z,100287.34
2022-11-09T09:56:06.101Z,100285.27
2022-11-09T09:58:40.347Z,100289.93
2022-11-09T10:01:16.755Z,100283.60
2022-11-09T10:03:48.890Z,100280.64
2022-11-09T10:06:39.854Z,100285.41
2022-11-09T10:09:25.192Z,100287.06
2022-11-09T10:12:06.636Z,100287.69
2022-11-09T10:15:12.633Z,100290.16
2022-11-09T10:17:56.816Z,100288.20
2022-11-09T10:20:38.621Z,100286.61
2022-11-09T10:23:36.877Z,100287.33
2022-11-09T10:26:17.725Z,100286.61
2022-11-09T10:29:15.137Z,100276.67
2022-11-09T10:31:48.274Z,100272.91
2022-11-09T10:34:22.334Z,100274.77
2022-11-09T10:37:05.705Z,100273.59
2022-11-09T10:39:46.445Z,100268.11
2022-11-09T10:42:37.062Z,100270.05
2022-11-09T10:45:33.436Z,100267.73
2022-11-09T10:48:35.743Z,100274.42
2022-11-09T10:51:40.989Z,100271.44
2022-11-09T10:54:34.929Z,100269.05
2022-11-09T10:57:26.365Z,100265.20
2022-11-09T11:00:21.916Z,100263.75
2022-11-09T11:03:20.286Z,100255.64
2022-11-09T11:06:17.018Z,100257.55
2022-11-09T11:09:21.993Z,100258.62
2022-11-09T11:12:20.973Z,100261.41
2022-11-09T11:15:26.694Z,100260.81
2022-11-09T11:18:22.190Z,100253.65
2022-11-09T11:21:19.264Z,100256.94
2022-11-09T11:24:22.637Z,100255.64
2022-11-09T11:27:18.166Z,100253.52
2022-11-09T11:30:18.224Z,100252.52
2022-11-09T11:33:17.993Z,100253.73
2022-11-09T11:36:19.446Z,100255.66
2022-11-09T11:39:21.004Z,100252.27
2022-11-09T11:42:30.460Z,100249.69
2022-11-09T11:45:41.601Z,100250.72
2022-11-09T11:49:06.876Z,100252.39
2022-11-09T11:52:04.484Z,100253.38
2022-11-09T11:55:09.020Z,100256.78
2022-11-09T11:58:16.139Z,100260.36
2022-11-09T12:01:14.459Z,100266.48
2022-11-09T12:04:22.399Z,100261.67
2022-11-09T12:07:30.087Z,100264.73
2022-11-09T12:10:32.197Z,100263.27
2022-11-09T12:13:44.486Z,100258.71
2022-11-09T12:16:43.306Z,100254.21
2022-11-09T12:20:05.044Z,100250.97
2022-11-09T12:23:05.734Z,100242.84
2022-11-09T12:26:14.879Z,100238.16
2022-11-09T12:29:15.523Z,100239.09
2022-11-09T12:32:22.962Z,100233.98
2022-11-09T12:35:32.990Z,100234.02
2022-11-09T12:38:26.433Z,100231.76
2022-11-09T12:41:21.792Z,100233.64
2022-11-09T12:44:18.190Z,100232.64
2022-11-09T12:47:16.087Z,100234.91
2022-11-09T12:50:07.681Z,100236.38
2022-11-09T12:52:58.433Z,100234.94
2022-11-09T12:55:53.276Z,100235.87
2022-11-09T12:58:42.821Z,100237.27
2022-11-09T13:01:53.145Z,100242.45
2022-11-09T13:04:57.775Z,100243.54
2022-11-09T13:07:53.442Z,100249.30
2022-11-09T13:10:44.304Z,100255.02
2022-11-09T13:13:34.383Z,100259.85
2022-11-09T13:16:38.214Z,100261.08
2022-11-09T13:19:52.492Z,100257.37
2022-11-09T13:23:01.351Z,100252.14
2022-11-09T13:25:53.340Z,100248.30
2022-11-09T13:29:12.067Z,100247.81
2022-11-09T13:32:21.782Z,100250.64
2022-11-09T13:35:49.605Z,100253.98
2022-11-09T13:38:49.259Z,100247.39
2022-11-09T13:41:45.627Z,100251.23
2022-11-09T13:44:39.336Z,100254.39
2022-11-09T13:47:35.545Z,100253.76
2022-11-09T13:50:28.158Z,100254.70
2022-11-09T13:53:53.005Z,100256.33
2022-11-09T13:56:45.489Z,100254.70
2022-11-09T13:59:39.266Z,100250.00
2022-11-09T14:02:29.382Z,100249.71
2022-11-09T14:05:34.720Z,100257.33
2022-11-09T14:08:29.211Z,100257.95
2022-11-09T14:11:50.343Z,100261.59
2022-11-09T14:15:22.185Z,100264.85
2022-11-09T14:18:25.818Z,100264.37
2022-11-09T14:21:38.141Z,100264.02
2022-11-09T14:24:32.860Z,100263.92
2022-11-09T14:27:23.936Z,100271.14
2022-11-09T14:30:24.836Z,100279.73
2022-11-09T14:33:30.790Z,100283.66
2022-11-09T14:36:20.985Z,100285.18
2022-11-09T14:39:28.695Z,100282.42
2022-11-09T14:42:22.181Z,100287.22
2022-11-09T14:45:18.624Z,100277.48
2022-11-09T14:48:21.188Z,100273.75
2022-11-09T14:51:14.753Z,100280.67
2022-11-09T14:54:16.452Z,100283.81
2022-11-09T14:57:06.644Z,100276.66
2022-11-09T14:59:57.842Z,100279.13
2022-11-09T15:02:47.775Z,100283.45
2022-11-09T15:05:42.036Z,100282.11
2022-11-09T15:08:35.451Z,100281.45
2022-11-09T15:11:35.869Z,100282.33
2022-11-09T15:14:30.553Z,100281.19
2022-11-09T15:17:23.409Z,100285.16
2022-11-09T15:20:29.284Z,100272.86
2022-11-09T15:23:40.390Z,100262.61
2022-11-09T15:26:38.885Z,100267.13
2022-11-09T15:29:39.618Z,100268.90
2022-11-09T15:32:34.181Z,100267.45
2022-11-09T15:35:24.022Z,100267.01
2022-11-09T15:38:32.337Z,100264.69
2022-11-09T15:41:23.470Z,100260.84
2022-11-09T15:44:17.349Z,100262.45
2022-11-09T15:47:20.068Z,100264.91
2022-11-09T15:50:19.538Z,100266.85
2022-11-09T15:53:11.405Z,100278.35
2022-11-09T15:56:02.412Z,100278.04
2022-11-09T15:58:53.575Z,100278.62
2022-11-09T16:01:43.760Z,100273.70
2022-11-09T16:04:33.685Z,100269.10
2022-11-09T16:07:24.955Z,100271.36
2022-11-09T16:10:17.960Z,100270.36
2022-11-09T16:13:09.920Z,100269.70
2022-11-09T16:16:08.197Z,100269.05
2022-11-09T16:18:59.292Z,100262.92
2022-11-09T16:21:49.444Z,100264.14
2022-11-09T16:24:40.480Z,100258.02
2022-11-09T16:30:45.539Z,100264.27
2022-11-09T16:33:35.201Z,100266.52
2022-11-09T16:36:28.133Z,100262.29
2022-11-09T16:39:22.407Z,100266.77
2022-11-09T16:42:14.804Z,100268.67
2022-11-09T16:45:11.225Z,100274.54
2022-11-09T16:47:59.648Z,100276.98
2022-11-09T16:50:50.323Z,100277.38
2022-11-09T16:53:43.385Z,100275.19
2022-11-09T16:56:33.844Z,100278.33
2022-11-09T16:59:27.480Z,100276.31
2022-11-09T17:02:19.705Z,100273.98
2022-11-09T17:05:11.772Z,100275.73
2022-11-09T17:08:02.135Z,100270.47
2022-11-09T17:10:54.397Z,100268.99
2022-11-09T17:13:44.992Z,100269.20
2022-11-09T17:16:35.418Z,100267.75
2022-11-09T17:19:25.195Z,100265.92
2022-11-09T17:22:15.287Z,100268.89
2022-11-09T17:25:05.839Z,100264.30
2022-11-09T17:27:55.707Z,100264.36
2022-11-09T17:30:45.350Z,100262.87
2022-11-09T17:33:35.152Z,100269.90
2022-11-09T17:36:48.865Z,100263.96
2022-11-09T17:39:35.223Z,100265.20
2022-11-09T17:42:24.952Z,100264.03
2022-11-09T17:45:14.651Z,100264.58
2022-11-09T17:48:05.724Z,100269.55
2022-11-09T17:50:56.003Z,100267.20
2022-11-09T17:53:45.896Z,100271.82
2022-11-09T17:56:36.260Z,100274.59
2022-11-09T17:59:25.769Z,100264.85
2022-11-09T18:02:16.398Z,100265.55
2022-11-09T18:05:07.537Z,100266.41
2022-11-09T18:07:57.579Z,100267.80
2022-11-09T18:10:51.199Z,100264.23
2022-11-09T18:13:41.114Z,100261.83
2022-11-09T18:16:30.944Z,100262.21
2022-11-09T18:19:21.246Z,100261.70
2022-11-09T18:22:12.914Z,100266.18
2022-11-09T18:25:02.729Z,100272.54
2022-11-09T18:27:56.756Z,100272.73
2022-11-09T18:30:46.432Z,100275.98
2022-11-09T18:33:40.871Z,100272.58
2022-11-09T18:36:30.856Z,100268.48
2022-11-09T18:39:20.325Z,100272.59
2022-11-09T18:42:10.214Z,100271.21
2022-11-09T18:45:01.475Z,100272.77
2022-11-09T18:47:54.650Z,100274.83
2022-11-09T18:50:44.786Z,100276.55
2022-11-09T18:53:37.672Z,100271.94
2022-11-09T18:56:27.880Z,100277.58
2022-11-09T18:59:17.715Z,100279.29
2022-11-09T19:02:09.043Z,100285.28
2022-11-09T19:04:59.145Z,100284.42
2022-11-09T19:07:49.168Z,100289.23
2022-11-09T19:10:39.453Z,100290.06
2022-11-09T19:13:29.344Z,100288.52
2022-11-09T19:16:19.581Z,100286.30
2022-11-09T19:19:14.722Z,100293.48
2022-11-09T19:22:05.034Z,100297.60
2022-11-09T19:24:54.874Z,100300.52
2022-11-09T19:27:45.010Z,100303.42
2022-11-09T19:30:34.893Z,100310.13
2022-11-09T19:33:24.738Z,100304.16
2022-11-09T19:36:29.761Z,100310.66
2022-11-09T19:39:22.917Z,100316.98
2022-11-09T19:42:12.995Z,100316.15
2022-11-09T19:45:03.228Z,100310.36
2022-11-09T19:47:52.885Z,100306.63
2022-11-09T19:50:47.318Z,100302.05
2022-11-09T19:53:41.179Z,100301.02
2022-11-09T19:56:33.385Z,100294.21
2022-11-09T19:59:24.055Z,100290.30
2022-11-09T20:02:17.537Z,100292.02
2022-11-09T20:05:09.255Z,100293.25
2022-11-09T20:07:59.258Z,100290.70
2022-11-09T20:10:54.455Z,100293.62
2022-11-09T20:13:44.147Z,100296.19
2022-11-09T20:16:35.463Z,100295.89
2022-11-09T20:19:26.205Z,100296.76
2022-11-09T20:22:16.125Z,100300.88
2022-11-09T20:25:08.889Z,100303.80
2022-11-09T20:27:58.459Z,100304.16
2022-11-09T20:30:48.225Z,100302.66
2022-11-09T20:33:38.271Z,100302.36
2022-11-09T20:36:28.139Z,100298.96
2022-11-09T20:39:18.181Z,100302.08
2022-11-09T20:42:10.023Z,100299.20
2022-11-09T20:45:02.330Z,100305.19
2022-11-09T20:48:31.075Z,100308.29
2022-11-09T20:51:08.246Z,100307.09
2022-11-09T20:54:02.442Z,100307.95
2022-11-09T20:56:57.398Z,100304.06
2022-11-09T20:59:50.118Z,100299.28
2022-11-09T21:02:39.467Z,100291.80
2022-11-09T21:05:32.685Z,100288.58
2022-11-09T21:08:51.030Z,100288.59
2022-11-09T21:12:09.666Z,100291.17
2022-11-09T21:15:36.855Z,100295.29
2022-11-09T21:18:28.260Z,100297.19
2022-11-09T21:21:21.050Z,100296.51
2022-11-09T21:24:30.146Z,100294.13
2022-11-09T21:27:37.958Z,100293.97
2022-11-09T21:30:27.783Z,100293.48
2022-11-09T21:33:18.147Z,100297.23
2022-11-09T21:36:11.932Z,100294.70
2022-11-09T21:39:02.142Z,100294.72
2022-11-09T21:41:52.347Z,100293.37
2022-11-09T21:44:42.731Z,100292.02
2022-11-09T21:47:32.896Z,100296.30
2022-11-09T21:50:23.629Z,100300.05
2022-11-09T21:53:13.553Z,100296.48
2022-11-09T21:56:04.207Z,100290.17
2022-11-09T21:58:54.410Z,100293.77
2022-11-09T22:01:45.608Z,100296.52
2022-11-09T22:04:35.461Z,100305.22
2022-11-09T22:07:25.713Z,100302.16
2022-11-09T22:10:17.306Z,100302.84
2022-11-09T22:13:27.681Z,100300.98
2022-11-09T22:16:22.971Z,100298.44
2022-11-09T22:19:30.488Z,100295.73
2022-11-09T22:22:20.690Z,100293.19
2022-11-09T22:25:11.310Z,100291.16
2022-11-09T22:28:01.052Z,100292.70
2022-11-09T22:30:50.852Z,100296.30
2022-11-09T22:33:42.546Z,100298.52
2022-11-09T22:36:32.130Z,100295.80
2022-11-09T22:39:22.106Z,100295.11
2022-11-09T22:42:12.001Z,100295.29
2022-11-09T22:45:02.143Z,100298.04
2022-11-09T22:47:51.555Z,100292.40
2022-11-09T22:50:40.986Z,100290.20
2022-11-09T22:53:31.026Z,100296.67
2022-11-09T22:56:21.439Z,100300.25
2022-11-09T22:59:11.086Z,100299.90
2022-11-09T23:02:00.587Z,100299.73
2022-11-09T23:04:50.473Z,100299.06
2022-11-09T23:07:40.273Z,100296.16
2022-11-09T23:10:29.997Z,100294.80
2022-11-09T23:13:19.979Z,100297.86
2022-11-09T23:16:11.966Z,100298.89
2022-11-09T23:19:01.560Z,100294.98
2022-11-09T23:21:51.169Z,100299.05
2022-11-09T23:25:06.886Z,100298.38
2022-11-09T23:27:56.517Z,100289.51
2022-11-09T23:30:46.336Z,100296.49
2022-11-09T23:33:36.309Z,100308.61
2022-11-09T23:36:27.258Z,100321.03
2022-11-09T23:39:16.853Z,100317.27
2022-11-09T23:42:06.772Z,100320.00
2022-11-09T23:44:56.066Z,100311.49
2022-11-09T23:47:45.795Z,100324.79
2022-11-09T23:50:35.474Z,100330.23
2022-11-09T23:53:25.184Z,100326.15
2022-11-09T23:56:15.004Z,100324.96
2022-11-09T23:59:04.487Z,100316.11
